createdAt,value
2023-04-16T00:01:31.853Z,100107.66
2023-04-16T00:03:59.957Z,100104.52
2023-04-16T00:06:28.744Z,100108.34
2023-04-16T00:08:56.360Z,100108.19
2023-04-16T00:11:24.047Z,100111.65
2023-04-16T00:13:51.717Z,100110.63
2023-04-16T00:16:19.497Z,100111.34
2023-04-16T00:18:47.248Z,100116.91
2023-04-16T00:21:14.922Z,100119.54
2023-04-16T00:23:42.664Z,100121.63
2023-04-16T00:26:10.277Z,100122.14
2023-04-16T00:28:37.908Z,100117.45
2023-04-16T00:31:05.670Z,100122.48
2023-04-16T00:33:33.591Z,100124.22
2023-04-16T00:36:01.222Z,100126.81
2023-04-16T00:38:30.478Z,100130.11
2023-04-16T00:40:58.869Z,100129.93
2023-04-16T00:43:27.513Z,100128.88
2023-04-16T00:45:57.603Z,100128.54
2023-04-16T00:48:27.982Z,100131.67
2023-04-16T00:50:56.422Z,100128.20
2023-04-16T00:53:24.518Z,100127.90
2023-04-16T00:55:52.557Z,100129.64
2023-04-16T00:58:21.897Z,100125.18
2023-04-16T01:00:51.518Z,100127.46
2023-04-16T01:03:19.855Z,100128.52
2023-04-16T01:05:49.393Z,100124.36
2023-04-16T01:08:19.049Z,100125.73
2023-04-16T01:10:47.272Z,100130.02
2023-04-16T01:13:15.293Z,100126.70
2023-04-16T01:15:42.996Z,100128.09
2023-04-16T01:18:18.849Z,100125.66
2023-04-16T01:20:47.977Z,100128.08
2023-04-16T01:23:18.382Z,100123.76
2023-04-16T01:25:47.628Z,100118.61
2023-04-16T01:28:15.658Z,100117.23
2023-04-16T01:30:43.346Z,100115.67
2023-04-16T01:33:12.943Z,100114.12
2023-04-16T01:35:41.726Z,100120.35
2023-04-16T01:38:10.372Z,100118.63
2023-04-16T01:40:38.036Z,100118.98
2023-04-16T01:43:05.682Z,100122.63
2023-04-16T01:45:34.300Z,100122.15
2023-04-16T01:48:03.552Z,100123.02
2023-04-16T01:50:32.024Z,100122.48
2023-04-16T01:53:03.114Z,100119.71
2023-04-16T01:55:34.402Z,100124.20
2023-04-16T01:58:02.358Z,100122.64
2023-04-16T02:00:30.507Z,100123.20
2023-04-16T02:02:58.167Z,100123.52
2023-04-16T02:05:26.173Z,100124.92
2023-04-16T02:07:54.195Z,100123.89
2023-04-16T02:10:22.328Z,100121.30
2023-04-16T02:12:51.028Z,100123.08
2023-04-16T02:15:18.826Z,100126.86
2023-04-16T02:17:48.042Z,100127.04
2023-04-16T02:20:15.934Z,100130.19
2023-04-16T02:22:43.862Z,100129.04
2023-04-16T02:25:11.738Z,100132.69
2023-04-16T02:27:39.401Z,100133.20
2023-04-16T02:30:08.001Z,100138.02
2023-04-16T02:32:35.764Z,100140.48
2023-04-16T02:35:04.166Z,100141.20
2023-04-16T02:37:31.745Z,100142.06
2023-04-16T02:39:59.659Z,100141.02
2023-04-16T02:42:28.484Z,100141.06
2023-04-16T02:44:56.067Z,100143.51
2023-04-16T02:47:23.607Z,100150.77
2023-04-16T02:49:51.313Z,100150.43
2023-04-16T02:52:19.075Z,100152.16
2023-04-16T02:54:46.804Z,100154.92
2023-04-16T02:57:14.321Z,100150.41
2023-04-16T02:59:42.057Z,100156.85
2023-04-16T03:02:09.656Z,100154.77
2023-04-16T03:04:37.333Z,100158.58
2023-04-16T03:07:05.495Z,100160.84
2023-04-16T03:09:33.106Z,100162.41
2023-04-16T03:12:02.461Z,100167.95
2023-04-16T03:14:30.788Z,100164.48
2023-04-16T03:16:59.052Z,100165.22
2023-04-16T03:19:26.762Z,100170.95
2023-04-16T03:21:54.464Z,100170.98
2023-04-16T03:24:22.328Z,100173.05
2023-04-16T03:26:49.920Z,100173.02
2023-04-16T03:29:17.611Z,100173.59
2023-04-16T03:31:45.202Z,100177.55
2023-04-16T03:34:12.843Z,100182.91
2023-04-16T03:36:41.066Z,100184.82
2023-04-16T03:39:10.157Z,100188.81
2023-04-16T03:41:38.240Z,100192.26
2023-04-16T03:44:05.854Z,100188.45
2023-04-16T03:46:33.441Z,100193.67
2023-04-16T03:49:01.630Z,100196.65
2023-04-16T03:51:29.530Z,100195.31
2023-04-16T03:53:57.259Z,100202.29
2023-04-16T03:56:25.006Z,100201.27
2023-04-16T03:58:52.599Z,100203.89
2023-04-16T04:01:20.210Z,100205.62
2023-04-16T04:03:48.046Z,100207.89
2023-04-16T04:06:16.459Z,100210.16
2023-04-16T04:08:44.036Z,100211.39
2023-04-16T04:11:11.718Z,100216.60
2023-04-16T04:13:39.452Z,100219.23
2023-04-16T04:16:07.461Z,100224.98
2023-04-16T04:18:35.405Z,100226.91
2023-04-16T04:21:08.107Z,100227.24
2023-04-16T04:23:36.648Z,100230.54
2023-04-16T04:26:05.628Z,100229.66
2023-04-16T04:28:34.374Z,100229.65
2023-04-16T04:31:02.318Z,100227.39
2023-04-16T04:33:29.970Z,100229.79
2023-04-16T04:35:57.606Z,100226.48
2023-04-16T04:38:25.645Z,100231.98
2023-04-16T04:40:53.305Z,100234.05
2023-04-16T04:43:21.111Z,100235.08
2023-04-16T04:45:49.506Z,100235.72
2023-04-16T04:48:17.712Z,100234.49
2023-04-16T04:50:46.308Z,100236.23
2023-04-16T04:53:15.155Z,100236.88
2023-04-16T04:55:42.858Z,100238.09
2023-04-16T04:58:10.446Z,100233.04
2023-04-16T05:00:40.226Z,100235.58
2023-04-16T05:03:11.507Z,100234.33
2023-04-16T05:05:40.985Z,100234.80
2023-04-16T05:08:08.633Z,100237.35
2023-04-16T05:10:36.512Z,100236.81
2023-04-16T05:13:04.241Z,100238.50
2023-04-16T05:15:31.798Z,100239.16
2023-04-16T05:17:59.600Z,100241.56
2023-04-16T05:20:27.324Z,100240.16
2023-04-16T05:22:55.370Z,100243.52
2023-04-16T05:25:23.252Z,100249.05
2023-04-16T05:27:50.855Z,100250.26
2023-04-16T05:30:19.158Z,100252.98
2023-04-16T05:32:46.863Z,100255.33
2023-04-16T05:35:17.216Z,100259.30
2023-04-16T05:37:45.220Z,100260.86
2023-04-16T05:40:14.402Z,100265.17
2023-04-16T05:42:42.155Z,100268.77
2023-04-16T05:45:10.696Z,100270.23
2023-04-16T05:47:38.291Z,100274.30
2023-04-16T05:50:06.581Z,100273.52
2023-04-16T05:52:34.326Z,100269.42
2023-04-16T05:55:02.125Z,100273.67
2023-04-16T05:57:30.361Z,100268.20
2023-04-16T05:59:58.086Z,100276.66
2023-04-16T06:02:26.262Z,100275.80
2023-04-16T06:04:54.186Z,100278.20
2023-04-16T06:07:22.745Z,100278.51
2023-04-16T06:09:50.498Z,100275.34
2023-04-16T06:12:18.250Z,100281.03
2023-04-16T06:14:45.940Z,100287.29
2023-04-16T06:17:13.768Z,100290.94
2023-04-16T06:19:41.532Z,100294.90
2023-04-16T06:22:09.134Z,100298.55
2023-04-16T06:24:37.027Z,100299.27
2023-04-16T06:27:04.807Z,100303.79
2023-04-16T06:29:40.702Z,100304.15
2023-04-16T06:32:09.949Z,100306.23
2023-04-16T06:34:39.364Z,100303.13
2023-04-16T06:37:09.860Z,100301.17
2023-04-16T06:39:38.710Z,100302.21
2023-04-16T06:42:06.377Z,100299.95
2023-04-16T06:44:36.858Z,100301.83
2023-04-16T06:47:04.762Z,100300.42
2023-04-16T06:49:32.568Z,100302.98
2023-04-16T06:52:00.426Z,100304.67
2023-04-16T06:54:28.134Z,100305.66
2023-04-16T06:56:56.043Z,100301.44
2023-04-16T06:59:23.880Z,100302.95
2023-04-16T07:01:52.793Z,100303.86
2023-04-16T07:04:21.160Z,100306.54
2023-04-16T07:06:49.050Z,100308.69
2023-04-16T07:09:18.108Z,100307.22
2023-04-16T07:11:46.037Z,100313.38
2023-04-16T07:14:13.945Z,100311.70
2023-04-16T07:16:41.727Z,100315.09
2023-04-16T07:19:09.920Z,100317.69
2023-04-16T07:21:37.957Z,100321.76
2023-04-16T07:24:05.975Z,100323.86
2023-04-16T07:26:33.755Z,100325.23
2023-04-16T07:29:01.628Z,100323.83
2023-04-16T07:31:29.525Z,100325.73
2023-04-16T07:33:58.244Z,100325.33
2023-04-16T07:36:28.366Z,100332.02
2023-04-16T07:38:56.252Z,100332.48
2023-04-16T07:41:24.324Z,100331.58
2023-04-16T07:43:52.352Z,100333.20
2023-04-16T07:46:21.882Z,100333.66
2023-04-16T07:48:51.324Z,100335.67
2023-04-16T07:51:23.908Z,100336.67
2023-04-16T07:53:51.722Z,100334.87
2023-04-16T07:56:23.995Z,100340.33
2023-04-16T07:58:51.896Z,100341.77
2023-04-16T08:01:19.951Z,100344.09
2023-04-16T08:03:47.890Z,100347.31
2023-04-16T08:06:16.064Z,100349.27
2023-04-16T08:08:43.869Z,100352.05
2023-04-16T08:11:11.734Z,100353.58
2023-04-16T08:13:39.576Z,100356.55
2023-04-16T08:16:07.768Z,100355.70
2023-04-16T08:18:36.998Z,100355.14
2023-04-16T08:21:04.958Z,100356.93
2023-04-16T08:23:33.375Z,100357.67
2023-04-16T08:26:02.125Z,100359.05
2023-04-16T08:28:29.978Z,100358.86
2023-04-16T08:30:57.892Z,100361.89
2023-04-16T08:33:25.667Z,100362.23
2023-04-16T08:35:53.531Z,100363.16
2023-04-16T08:38:21.240Z,100366.45
2023-04-16T08:40:48.954Z,100367.85
2023-04-16T08:43:19.317Z,100370.48
2023-04-16T08:45:47.630Z,100370.02
2023-04-16T08:48:15.776Z,100370.08
2023-04-16T08:50:44.986Z,100373.90
2023-04-16T08:53:18.566Z,100375.60
2023-04-16T08:55:49.090Z,100372.86
2023-04-16T08:58:22.784Z,100369.63
2023-04-16T09:00:51.089Z,100376.92
2023-04-16T09:03:21.871Z,100375.51
2023-04-16T09:05:50.334Z,100380.66
2023-04-16T09:08:18.561Z,100384.17
2023-04-16T09:10:46.974Z,100386.67
2023-04-16T09:13:16.960Z,100391.16
2023-04-16T09:15:45.224Z,100391.77
2023-04-16T09:18:13.026Z,100393.99
2023-04-16T09:20:40.758Z,100398.86
2023-04-16T09:23:11.034Z,100397.60
2023-04-16T09:25:38.709Z,100403.91
2023-04-16T09:28:06.712Z,100407.79
2023-04-16T09:30:34.887Z,100406.11
2023-04-16T09:33:23.292Z,100405.47
2023-04-16T09:35:53.046Z,100408.60
2023-04-16T09:38:21.770Z,100408.48
2023-04-16T09:41:07.324Z,100410.34
2023-04-16T09:43:35.707Z,100412.05
2023-04-16T09:46:08.084Z,100414.32
2023-04-16T09:48:38.211Z,100417.88
2023-04-16T09:51:07.226Z,100418.56
2023-04-16T09:53:35.568Z,100418.92
2023-04-16T09:56:06.172Z,100419.69
2023-04-16T09:58:37.390Z,100422.19
2023-04-16T10:01:10.941Z,100423.94
2023-04-16T10:03:40.991Z,100428.98
2023-04-16T10:06:18.640Z,100433.30
2023-04-16T10:08:52.803Z,100436.13
2023-04-16T10:11:21.349Z,100437.34
2023-04-16T10:13:49.361Z,100439.59
2023-04-16T10:16:18.124Z,100443.58
2023-04-16T10:18:48.195Z,100445.35
2023-04-16T10:21:16.658Z,100447.45
2023-04-16T10:23:44.995Z,100443.23
2023-04-16T10:26:14.081Z,100446.36
2023-04-16T10:28:44.028Z,100441.77
2023-04-16T10:31:13.650Z,100445.58
2023-04-16T10:33:42.905Z,100440.91
2023-04-16T10:36:13.036Z,100443.34
2023-04-16T10:38:45.411Z,100448.26
2023-04-16T10:41:13.971Z,100452.10
2023-04-16T10:43:44.787Z,100449.66
2023-04-16T10:46:37.875Z,100451.46
2023-04-16T10:49:25.654Z,100453.35
2023-04-16T10:51:57.669Z,100451.83
2023-04-16T10:54:29.234Z,100452.89
2023-04-16T10:56:59.178Z,100455.90
2023-04-16T10:59:34.189Z,100459.23
2023-04-16T11:02:07.594Z,100462.41
2023-04-16T11:04:37.994Z,100459.73
2023-04-16T11:07:14.897Z,100465.23
2023-04-16T11:10:02.562Z,100465.91
2023-04-16T11:12:47.498Z,100471.09
2023-04-16T11:15:16.557Z,100470.63
2023-04-16T11:17:51.935Z,100472.92
2023-04-16T11:20:24.857Z,100474.19
2023-04-16T11:22:54.642Z,100478.11
2023-04-16T11:25:27.710Z,100482.80
2023-04-16T11:27:58.448Z,100486.92
2023-04-16T11:30:42.471Z,100489.56
2023-04-16T11:33:11.954Z,100494.43
2023-04-16T11:35:41.270Z,100497.48
2023-04-16T11:38:09.209Z,100497.88
2023-04-16T11:40:37.128Z,100497.73
2023-04-16T11:43:21.043Z,100500.58
2023-04-16T11:46:24.073Z,100501.65
2023-04-16T11:48:56.283Z,100502.70
2023-04-16T11:51:24.336Z,100504.48
2023-04-16T11:53:55.902Z,100506.88
2023-04-16T11:56:34.889Z,100508.03
2023-04-16T11:59:10.993Z,100506.23
2023-04-16T12:01:41.199Z,100503.66
2023-04-16T12:04:09.169Z,100505.68
2023-04-16T12:06:37.857Z,100503.34
2023-04-16T12:09:23.937Z,100504.04
2023-04-16T12:11:51.593Z,100507.11
2023-04-16T12:14:19.483Z,100509.00
2023-04-16T12:16:47.729Z,100507.23
2023-04-16T12:19:15.920Z,100509.96
2023-04-16T12:21:49.909Z,100512.91
2023-04-16T12:24:20.928Z,100512.94
2023-04-16T12:26:56.121Z,100509.81
2023-04-16T12:29:26.329Z,100512.98
2023-04-16T12:31:55.702Z,100511.26
2023-04-16T12:34:29.099Z,100513.94
2023-04-16T12:37:12.575Z,100515.73
2023-04-16T12:39:40.318Z,100514.91
2023-04-16T12:42:11.088Z,100516.66
2023-04-16T12:44:38.799Z,100512.65
2023-04-16T12:47:06.594Z,100511.20
2023-04-16T12:49:36.128Z,100506.30
2023-04-16T12:52:04.158Z,100507.13
2023-04-16T12:54:33.380Z,100506.16
2023-04-16T12:57:01.135Z,100508.20
2023-04-16T12:59:28.691Z,100513.08
2023-04-16T13:01:56.333Z,100513.98
2023-04-16T13:04:25.676Z,100514.11
2023-04-16T13:06:54.059Z,100514.46
2023-04-16T13:09:22.032Z,100515.15
2023-04-16T13:11:49.856Z,100513.73
2023-04-16T13:14:17.452Z,100513.66
2023-04-16T13:16:45.540Z,100510.98
2023-04-16T13:19:13.573Z,100513.34
2023-04-16T13:21:41.943Z,100509.80
2023-04-16T13:24:09.592Z,100510.95
2023-04-16T13:26:37.325Z,100507.55
2023-04-16T13:29:04.881Z,100510.61
2023-04-16T13:31:32.779Z,100513.02
2023-04-16T13:34:01.216Z,100516.34
2023-04-16T13:36:30.632Z,100516.42
2023-04-16T13:38:59.480Z,100514.67
2023-04-16T13:41:27.557Z,100519.02
2023-04-16T13:43:55.442Z,100522.61
2023-04-16T13:46:23.211Z,100525.85
2023-04-16T13:48:51.007Z,100528.71
2023-04-16T13:51:18.679Z,100531.57
2023-04-16T13:53:46.308Z,100530.21
2023-04-16T13:56:14.464Z,100530.07
2023-04-16T13:58:42.667Z,100532.14
2023-04-16T14:01:10.447Z,100533.15
2023-04-16T14:03:38.859Z,100535.58
2023-04-16T14:06:07.081Z,100535.83
2023-04-16T14:08:34.637Z,100538.46
2023-04-16T14:11:02.362Z,100536.99
2023-04-16T14:13:29.937Z,100541.67
2023-04-16T14:15:57.793Z,100543.20
2023-04-16T14:18:25.473Z,100540.86
2023-04-16T14:20:53.272Z,100540.48
2023-04-16T14:23:21.234Z,100540.93
2023-04-16T14:25:48.870Z,100540.08
2023-04-16T14:28:17.190Z,100541.65
2023-04-16T14:30:45.058Z,100540.95
2023-04-16T14:33:12.731Z,100537.69
2023-04-16T14:35:40.297Z,100540.34
2023-04-16T14:38:07.953Z,100537.05
2023-04-16T14:40:35.720Z,100538.98
2023-04-16T14:43:03.423Z,100539.57
2023-04-16T14:45:32.767Z,100537.27
2023-04-16T14:48:00.550Z,100537.52
2023-04-16T14:50:28.154Z,100536.71
2023-04-16T14:52:56.043Z,100541.61
2023-04-16T14:55:23.687Z,100544.11
2023-04-16T14:57:51.467Z,100543.61
2023-04-16T15:00:19.364Z,100546.28
2023-04-16T15:02:48.209Z,100546.50
2023-04-16T15:05:16.636Z,100546.88
2023-04-16T15:07:44.293Z,100549.98
2023-04-16T15:10:12.938Z,100553.98
2023-04-16T15:12:40.942Z,100554.54
2023-04-16T15:15:09.556Z,100555.42
2023-04-16T15:17:37.386Z,100554.55
2023-04-16T15:20:08.532Z,100558.35
2023-04-16T15:22:37.093Z,100562.27
2023-04-16T15:25:06.336Z,100563.27
2023-04-16T15:27:33.984Z,100561.35
2023-04-16T15:30:01.809Z,100562.17
2023-04-16T15:32:30.999Z,100566.47
2023-04-16T15:34:59.976Z,100565.56
2023-04-16T15:37:27.786Z,100568.69
2023-04-16T15:39:55.373Z,100573.21
2023-04-16T15:42:24.272Z,100571.30
2023-04-16T15:44:52.213Z,100574.79
2023-04-16T15:47:19.852Z,100575.33
2023-04-16T15:49:47.422Z,100578.86
2023-04-16T15:52:15.889Z,100578.69
2023-04-16T15:54:43.568Z,100579.91
2023-04-16T15:57:11.150Z,100578.55
2023-04-16T15:59:38.782Z,100578.44
2023-04-16T16:02:06.519Z,100577.73
2023-04-16T16:04:34.639Z,100577.79
2023-04-16T16:07:04.055Z,100581.36
2023-04-16T16:09:31.947Z,100581.45
2023-04-16T16:11:59.791Z,100582.72
2023-04-16T16:14:27.326Z,100586.41
2023-04-16T16:16:55.025Z,100587.81
2023-04-16T16:19:22.653Z,100587.34
2023-04-16T16:21:50.606Z,100591.06
2023-04-16T16:24:18.291Z,100587.67
2023-04-16T16:26:45.979Z,100587.40
2023-04-16T16:29:13.717Z,100589.94
2023-04-16T16:31:41.383Z,100590.88
2023-04-16T16:34:14.725Z,100592.48
2023-04-16T16:36:48.620Z,100596.30
2023-04-16T16:39:16.459Z,100599.77
2023-04-16T16:41:45.639Z,100597.88
2023-04-16T16:44:13.228Z,100597.21
2023-04-16T16:46:41.192Z,100599.14
2023-04-16T16:49:10.373Z,100599.16
2023-04-16T16:51:38.335Z,100601.42
2023-04-16T16:54:07.485Z,100602.00
2023-04-16T16:56:35.053Z,100600.05
2023-04-16T16:59:03.024Z,100599.84
2023-04-16T17:01:32.613Z,100607.99
2023-04-16T17:04:00.344Z,100607.43
2023-04-16T17:06:28.687Z,100611.41
2023-04-16T17:08:56.411Z,100611.39
2023-04-16T17:11:27.265Z,100611.02
2023-04-16T17:13:55.026Z,100613.09
2023-04-16T17:16:24.259Z,100618.27
2023-04-16T17:18:51.955Z,100616.81
2023-04-16T17:21:19.786Z,100623.53
2023-04-16T17:23:47.382Z,100621.55
2023-04-16T17:26:15.210Z,100622.01
2023-04-16T17:28:42.829Z,100624.90
2023-04-16T17:31:11.497Z,100623.11
2023-04-16T17:33:39.428Z,100628.46
2023-04-16T17:36:07.893Z,100624.58
2023-04-16T17:38:35.507Z,100625.22
2023-04-16T17:41:03.072Z,100626.71
2023-04-16T17:43:30.698Z,100633.05
2023-04-16T17:45:58.621Z,100636.77
2023-04-16T17:48:26.438Z,100635.45
2023-04-16T17:50:55.444Z,100639.15
2023-04-16T17:53:23.017Z,100641.10
2023-04-16T17:55:56.005Z,100646.33
2023-04-16T17:58:26.533Z,100648.94
2023-04-16T18:00:54.146Z,100649.83
2023-04-16T18:03:22.362Z,100650.38
2023-04-16T18:05:50.374Z,100654.19
2023-04-16T18:08:18.037Z,100648.99
2023-04-16T18:10:45.779Z,100649.16
2023-04-16T18:13:13.526Z,100650.90
2023-04-16T18:15:41.871Z,100650.77
2023-04-16T18:18:09.905Z,100653.02
2023-04-16T18:20:37.527Z,100654.77
2023-04-16T18:23:05.352Z,100654.94
2023-04-16T18:25:35.238Z,100660.33
2023-04-16T18:28:03.951Z,100666.23
2023-04-16T18:30:32.621Z,100670.39
2023-04-16T18:33:25.912Z,100673.70
2023-04-16T18:35:48.029Z,100671.30
2023-04-16T18:38:15.783Z,100667.52
2023-04-16T18:40:43.639Z,100674.86
2023-04-16T18:43:11.238Z,100681.68
2023-04-16T18:45:40.044Z,100683.64
2023-04-16T18:48:07.834Z,100689.27
2023-04-16T18:50:35.641Z,100685.19
2023-04-16T18:53:03.448Z,100686.29
2023-04-16T18:55:31.342Z,100688.45
2023-04-16T18:57:59.027Z,100692.16
2023-04-16T19:00:26.769Z,100690.84
2023-04-16T19:02:54.434Z,100688.13
2023-04-16T19:05:23.495Z,100690.95
2023-04-16T19:07:51.036Z,100692.73
2023-04-16T19:10:18.728Z,100693.30
2023-04-16T19:12:46.436Z,100695.05
2023-04-16T19:15:14.792Z,100696.81
2023-04-16T19:17:42.790Z,100691.98
2023-04-16T19:20:11.758Z,100693.59
2023-04-16T19:22:39.686Z,100693.12
2023-04-16T19:25:07.841Z,100692.98
2023-04-16T19:27:36.247Z,100695.81
2023-04-16T19:30:05.140Z,100697.92
2023-04-16T19:32:34.864Z,100695.88
2023-04-16T19:35:03.912Z,100701.25
2023-04-16T19:37:31.648Z,100702.67
2023-04-16T19:39:59.758Z,100700.46
2023-04-16T19:42:27.657Z,100699.27
2023-04-16T19:44:55.232Z,100697.39
2023-04-16T19:47:24.446Z,100698.63
2023-04-16T19:49:52.245Z,100696.58
2023-04-16T19:52:19.854Z,100701.78
2023-04-16T19:54:48.218Z,100703.00
2023-04-16T19:57:16.016Z,100705.27
2023-04-16T19:59:43.698Z,100704.58
2023-04-16T20:02:11.456Z,100705.11
2023-04-16T20:04:39.133Z,100709.27
2023-04-16T20:07:06.903Z,100712.40
2023-04-16T20:09:34.631Z,100715.51
2023-04-16T20:12:02.688Z,100719.48
2023-04-16T20:14:30.281Z,100720.33
2023-04-16T20:16:57.892Z,100727.06
2023-04-16T20:19:30.592Z,100726.69
2023-04-16T20:21:58.433Z,100728.92
2023-04-16T20:24:27.227Z,100728.90
2023-04-16T20:26:54.975Z,100725.92
2023-04-16T20:29:22.858Z,100728.51
2023-04-16T20:31:50.831Z,100730.89
2023-04-16T20:34:18.427Z,100728.81
2023-04-16T20:36:45.997Z,100729.83
2023-04-16T20:39:13.718Z,100732.05
2023-04-16T20:41:45.594Z,100732.02
2023-04-16T20:44:18.224Z,100729.75
2023-04-16T20:46:49.579Z,100733.89
2023-04-16T20:49:18.568Z,100736.28
2023-04-16T20:51:46.170Z,100737.66
2023-04-16T20:54:13.752Z,100740.78
2023-04-16T20:56:43.447Z,100739.89
2023-04-16T20:59:13.412Z,100735.71
2023-04-16T21:01:41.227Z,100735.02
2023-04-16T21:04:09.097Z,100737.41
2023-04-16T21:06:38.840Z,100738.77
2023-04-16T21:09:06.548Z,100741.17
2023-04-16T21:11:35.453Z,100737.68
2023-04-16T21:14:05.460Z,100739.39
2023-04-16T21:16:33.168Z,100744.23
2023-04-16T21:19:00.817Z,100742.98
2023-04-16T21:21:29.806Z,100741.59
2023-04-16T21:23:59.146Z,100743.48
2023-04-16T21:26:26.863Z,100744.52
2023-04-16T21:28:55.207Z,100744.67
2023-04-16T21:31:24.114Z,100744.48
2023-04-16T21:33:51.723Z,100746.89
2023-04-16T21:36:19.305Z,100746.89
2023-04-16T21:38:47.489Z,100740.80
2023-04-16T21:41:15.067Z,100744.44
2023-04-16T21:43:42.756Z,100741.65
2023-04-16T21:46:10.546Z,100744.23
2023-04-16T21:48:38.908Z,100741.78
2023-04-16T21:51:06.950Z,100740.06
2023-04-16T21:53:34.956Z,100741.26
2023-04-16T21:56:04.170Z,100739.70
2023-04-16T21:58:31.761Z,100741.77
2023-04-16T22:00:59.266Z,100742.11
2023-04-16T22:03:28.356Z,100738.98
2023-04-16T22:06:02.661Z,100740.72
2023-04-16T22:08:30.652Z,100739.86
2023-04-16T22:11:01.571Z,100739.48
2023-04-16T22:13:33.930Z,100741.56
2023-04-16T22:16:01.903Z,100741.73
2023-04-16T22:18:33.743Z,100741.39
2023-04-16T22:21:01.524Z,100743.48
2023-04-16T22:23:29.914Z,100740.00
2023-04-16T22:25:57.704Z,100739.48
2023-04-16T22:28:25.369Z,100742.42
2023-04-16T22:30:53.036Z,100742.95
2023-04-16T22:33:20.766Z,100746.25
2023-04-16T22:35:48.389Z,100750.41
2023-04-16T22:38:16.576Z,100744.31
2023-04-16T22:40:48.995Z,100749.51
2023-04-16T22:43:18.242Z,100749.33
2023-04-16T22:45:48.666Z,100750.38
2023-04-16T22:48:16.348Z,100749.69
2023-04-16T22:50:51.060Z,100751.40
2023-04-16T22:53:19.294Z,100750.86
2023-04-16T22:55:46.909Z,100748.43
2023-04-16T22:58:14.600Z,100748.09
2023-04-16T23:00:42.878Z,100750.34
2023-04-16T23:03:10.589Z,100752.25
2023-04-16T23:05:38.259Z,100752.42
2023-04-16T23:08:07.263Z,100754.67
2023-04-16T23:10:35.674Z,100755.71
2023-04-16T23:13:03.580Z,100757.11
2023-04-16T23:15:31.493Z,100759.71
2023-04-16T23:17:59.193Z,100755.72
2023-04-16T23:20:28.739Z,100755.55
2023-04-16T23:22:56.364Z,100756.06
2023-04-16T23:25:25.819Z,100756.08
2023-04-16T23:27:53.332Z,100757.48
2023-04-16T23:30:20.929Z,100756.80
2023-04-16T23:32:48.904Z,100754.37
2023-04-16T23:35:23.232Z,100750.23
2023-04-16T23:37:51.321Z,100750.23
2023-04-16T23:40:18.971Z,100752.32
2023-04-16T23:42:46.531Z,100751.27
2023-04-16T23:45:14.354Z,100753.20
2023-04-16T23:47:42.974Z,100755.11
2023-04-16T23:50:11.146Z,100755.11
2023-04-16T23:52:39.083Z,100752.33
2023-04-16T23:55:06.986Z,100756.65
2023-04-16T23:57:34.580Z,100754.05
